sensor_id;sensor_type;location;lat;lon;timestamp;temperature;humidity
17986;DHT22;9118;48.122;11.546;2024-02-26T00:01:14;4.80;99.90
17986;DHT22;9118;48.122;11.546;2024-02-26T00:03:43;4.50;99.90
17986;DHT22;9118;48.122;11.546;2024-02-26T00:06:12;4.70;99.90
17986;DHT22;9118;48.122;11.546;2024-02-26T00:08:39;4.70;99.90
17986;DHT22;9118;48.122;11.546;2024-02-26T00:11:11;4.70;99.90
17986;DHT22;9118;48.122;11.546;2024-02-26T00:13:42;4.60;99.90
17986;DHT22;9118;48.122;11.546;2024-02-26T00:16:14;4.70;99.90
17986;DHT22;9118;48.122;11.546;2024-02-26T00:18:43;4.60;99.90
17986;DHT22;9118;48.122;11.546;2024-02-26T00:21:11;4.70;99.90
17986;DHT22;9118;48.122;11.546;2024-02-26T00:23:39;4.60;99.90
17986;DHT22;9118;48.122;11.546;2024-02-26T00:26:08;4.70;99.90
17986;DHT22;9118;48.122;11.546;2024-02-26T00:28:37;4.70;99.90
17986;DHT22;9118;48.122;11.546;2024-02-26T00:31:05;4.70;99.90
17986;DHT22;9118;48.122;11.546;2024-02-26T00:33:32;4.70;99.90
17986;DHT22;9118;48.122;11.546;2024-02-26T00:35:59;4.60;99.90
17986;DHT22;9118;48.122;11.546;2024-02-26T00:38:26;4.70;99.90
17986;DHT22;9118;48.122;11.546;2024-02-26T00:40:53;4.70;99.90
17986;DHT22;9118;48.122;11.546;2024-02-26T00:43:20;4.60;99.90
17986;DHT22;9118;48.122;11.546;2024-02-26T00:45:47;4.60;99.90
17986;DHT22;9118;48.122;11.546;2024-02-26T00:48:15;4.60;99.90
17986;DHT22;9118;48.122;11.546;2024-02-26T00:50:42;4.60;99.90
17986;DHT22;9118;48.122;11.546;2024-02-26T00:53:09;4.60;99.90
17986;DHT22;9118;48.122;11.546;2024-02-26T00:55:36;4.60;99.90
17986;DHT22;9118;48.122;11.546;2024-02-26T00:58:03;4.50;99.90
17986;DHT22;9118;48.122;11.546;2024-02-26T01:00:30;4.50;99.90
17986;DHT22;9118;48.122;11.546;2024-02-26T01:02:56;4.50;99.90
17986;DHT22;9118;48.122;11.546;2024-02-26T01:05:26;4.50;99.90
17986;DHT22;9118;48.122;11.546;2024-02-26T01:07:53;4.40;99.90
17986;DHT22;9118;48.122;11.546;2024-02-26T01:10:20;4.40;99.90
17986;DHT22;9118;48.122;11.546;2024-02-26T01:12:47;4.40;99.90
17986;DHT22;9118;48.122;11.546;2024-02-26T01:15:15;4.40;99.90
17986;DHT22;9118;48.122;11.546;2024-02-26T01:17:44;4.70;99.90
17986;DHT22;9118;48.122;11.546;2024-02-26T01:20:11;4.40;99.90
17986;DHT22;9118;48.122;11.546;2024-02-26T01:22:40;4.40;99.90
17986;DHT22;9118;48.122;11.546;2024-02-26T01:25:07;4.40;99.90
17986;DHT22;9118;48.122;11.546;2024-02-26T01:27:34;4.30;99.90
17986;DHT22;9118;48.122;11.546;2024-02-26T01:30:02;4.30;99.90
17986;DHT22;9118;48.122;11.546;2024-02-26T01:32:29;4.30;99.90
17986;DHT22;9118;48.122;11.546;2024-02-26T01:34:56;4.40;99.90
17986;DHT22;9118;48.122;11.546;2024-02-26T01:37:23;4.40;99.90
17986;DHT22;9118;48.122;11.546;2024-02-26T01:39:51;4.20;99.90
17986;DHT22;9118;48.122;11.546;2024-02-26T01:42:18;4.30;99.90
17986;DHT22;9118;48.122;11.546;2024-02-26T01:44:45;4.20;99.90
17986;DHT22;9118;48.122;11.546;2024-02-26T01:47:12;4.20;99.90
17986;DHT22;9118;48.122;11.546;2024-02-26T01:49:39;4.30;99.90
17986;DHT22;9118;48.122;11.546;2024-02-26T01:52:07;4.20;99.90
17986;DHT22;9118;48.122;11.546;2024-02-26T01:54:36;4.20;99.90
17986;DHT22;9118;48.122;11.546;2024-02-26T01:57:05;4.40;99.90
17986;DHT22;9118;48.122;11.546;2024-02-26T01:59:32;4.30;99.90
17986;DHT22;9118;48.122;11.546;2024-02-26T02:02:01;4.30;99.90
17986;DHT22;9118;48.122;11.546;2024-02-26T02:04:29;4.20;99.90
17986;DHT22;9118;48.122;11.546;2024-02-26T02:06:57;4.20;99.90
17986;DHT22;9118;48.122;11.546;2024-02-26T02:11:53;4.00;99.90
17986;DHT22;9118;48.122;11.546;2024-02-26T02:14:21;4.00;99.90
17986;DHT22;9118;48.122;11.546;2024-02-26T02:16:48;4.00;99.90
17986;DHT22;9118;48.122;11.546;2024-02-26T02:19:15;4.00;99.90
17986;DHT22;9118;48.122;11.546;2024-02-26T02:21:43;4.00;99.90
17986;DHT22;9118;48.122;11.546;2024-02-26T02:24:10;3.80;99.90
17986;DHT22;9118;48.122;11.546;2024-02-26T02:26:37;4.00;99.90
17986;DHT22;9118;48.122;11.546;2024-02-26T02:29:04;4.00;99.90
17986;DHT22;9118;48.122;11.546;2024-02-26T02:31:32;3.90;99.90
17986;DHT22;9118;48.122;11.546;2024-02-26T02:33:59;4.00;99.90
17986;DHT22;9118;48.122;11.546;2024-02-26T02:36:26;3.90;99.90
17986;DHT22;9118;48.122;11.546;2024-02-26T02:38:54;4.00;99.90
17986;DHT22;9118;48.122;11.546;2024-02-26T02:41:21;4.10;99.90
17986;DHT22;9118;48.122;11.546;2024-02-26T02:43:48;4.10;99.90
17986;DHT22;9118;48.122;11.546;2024-02-26T02:46:15;4.00;99.90
17986;DHT22;9118;48.122;11.546;2024-02-26T02:48:42;4.00;99.90
17986;DHT22;9118;48.122;11.546;2024-02-26T02:51:09;4.00;99.90
17986;DHT22;9118;48.122;11.546;2024-02-26T02:53:36;4.00;99.90
17986;DHT22;9118;48.122;11.546;2024-02-26T02:56:05;3.90;99.90
17986;DHT22;9118;48.122;11.546;2024-02-26T02:58:32;3.90;99.90
17986;DHT22;9118;48.122;11.546;2024-02-26T03:00:59;4.00;99.90
17986;DHT22;9118;48.122;11.546;2024-02-26T03:03:26;3.90;99.90
17986;DHT22;9118;48.122;11.546;2024-02-26T03:05:54;3.90;99.90
17986;DHT22;9118;48.122;11.546;2024-02-26T03:08:21;3.90;99.90
17986;DHT22;9118;48.122;11.546;2024-02-26T03:10:47;3.90;99.90
17986;DHT22;9118;48.122;11.546;2024-02-26T03:13:16;3.90;99.90
17986;DHT22;9118;48.122;11.546;2024-02-26T03:15:42;3.90;99.90
17986;DHT22;9118;48.122;11.546;2024-02-26T03:18:09;3.90;99.90
17986;DHT22;9118;48.122;11.546;2024-02-26T03:20:36;4.00;99.90
17986;DHT22;9118;48.122;11.546;2024-02-26T03:23:03;3.90;99.90
17986;DHT22;9118;48.122;11.546;2024-02-26T03:25:30;4.00;99.90
17986;DHT22;9118;48.122;11.546;2024-02-26T03:27:57;4.00;99.90
17986;DHT22;9118;48.122;11.546;2024-02-26T03:30:25;4.10;99.90
17986;DHT22;9118;48.122;11.546;2024-02-26T03:32:52;4.20;99.90
17986;DHT22;9118;48.122;11.546;2024-02-26T03:35:19;4.10;99.90
17986;DHT22;9118;48.122;11.546;2024-02-26T03:37:46;4.10;99.90
17986;DHT22;9118;48.122;11.546;2024-02-26T03:40:15;4.10;99.90
17986;DHT22;9118;48.122;11.546;2024-02-26T03:42:44;4.10;99.90
17986;DHT22;9118;48.122;11.546;2024-02-26T03:45:10;4.10;99.90
17986;DHT22;9118;48.122;11.546;2024-02-26T03:47:39;4.10;99.90
17986;DHT22;9118;48.122;11.546;2024-02-26T03:50:06;4.00;99.90
17986;DHT22;9118;48.122;11.546;2024-02-26T03:52:33;3.40;99.90
17986;DHT22;9118;48.122;11.546;2024-02-26T03:55:00;4.30;99.90
17986;DHT22;9118;48.122;11.546;2024-02-26T03:57:27;4.00;99.90
17986;DHT22;9118;48.122;11.546;2024-02-26T03:59:55;4.10;99.90
17986;DHT22;9118;48.122;11.546;2024-02-26T04:02:22;4.00;99.90
17986;DHT22;9118;48.122;11.546;2024-02-26T04:04:52;4.00;99.90
17986;DHT22;9118;48.122;11.546;2024-02-26T04:07:19;4.10;99.90
17986;DHT22;9118;48.122;11.546;2024-02-26T04:09:46;4.10;99.90
17986;DHT22;9118;48.122;11.546;2024-02-26T04:12:13;4.10;99.90
17986;DHT22;9118;48.122;11.546;2024-02-26T04:14:40;4.10;99.90
17986;DHT22;9118;48.122;11.546;2024-02-26T04:17:07;4.00;99.90
17986;DHT22;9118;48.122;11.546;2024-02-26T04:19:34;4.10;99.90
17986;DHT22;9118;48.122;11.546;2024-02-26T04:22:02;4.10;99.90
17986;DHT22;9118;48.122;11.546;2024-02-26T04:24:29;4.00;99.90
17986;DHT22;9118;48.122;11.546;2024-02-26T04:26:56;4.10;99.90
17986;DHT22;9118;48.122;11.546;2024-02-26T04:29:23;4.00;99.90
17986;DHT22;9118;48.122;11.546;2024-02-26T04:31:50;4.00;99.90
17986;DHT22;9118;48.122;11.546;2024-02-26T04:34:17;3.90;99.90
17986;DHT22;9118;48.122;11.546;2024-02-26T04:36:43;3.90;99.90
17986;DHT22;9118;48.122;11.546;2024-02-26T04:39:12;3.90;99.90
17986;DHT22;9118;48.122;11.546;2024-02-26T04:41:39;3.90;99.90
17986;DHT22;9118;48.122;11.546;2024-02-26T04:44:05;3.90;99.90
17986;DHT22;9118;48.122;11.546;2024-02-26T04:46:32;3.80;99.90
17986;DHT22;9118;48.122;11.546;2024-02-26T04:49:00;3.80;99.90
17986;DHT22;9118;48.122;11.546;2024-02-26T04:51:26;3.90;99.90
17986;DHT22;9118;48.122;11.546;2024-02-26T04:53:54;3.60;99.90
17986;DHT22;9118;48.122;11.546;2024-02-26T04:56:22;3.80;99.90
17986;DHT22;9118;48.122;11.546;2024-02-26T04:58:49;3.80;99.90
17986;DHT22;9118;48.122;11.546;2024-02-26T05:01:16;3.80;99.90
17986;DHT22;9118;48.122;11.546;2024-02-26T05:03:44;3.70;99.90
17986;DHT22;9118;48.122;11.546;2024-02-26T05:06:11;3.80;99.90
17986;DHT22;9118;48.122;11.546;2024-02-26T05:08:38;3.80;99.90
17986;DHT22;9118;48.122;11.546;2024-02-26T05:11:05;3.90;99.90
17986;DHT22;9118;48.122;11.546;2024-02-26T05:13:33;3.90;99.90
17986;DHT22;9118;48.122;11.546;2024-02-26T05:16:00;4.00;99.90
17986;DHT22;9118;48.122;11.546;2024-02-26T05:18:27;4.00;99.90
17986;DHT22;9118;48.122;11.546;2024-02-26T05:20:54;4.00;99.90
17986;DHT22;9118;48.122;11.546;2024-02-26T05:23:21;3.80;99.90
17986;DHT22;9118;48.122;11.546;2024-02-26T05:25:48;4.10;99.90
17986;DHT22;9118;48.122;11.546;2024-02-26T05:28:15;4.00;99.90
17986;DHT22;9118;48.122;11.546;2024-02-26T05:30:43;4.00;99.90
17986;DHT22;9118;48.122;11.546;2024-02-26T05:33:10;4.10;99.90
17986;DHT22;9118;48.122;11.546;2024-02-26T05:35:37;4.10;99.90
17986;DHT22;9118;48.122;11.546;2024-02-26T05:38:04;4.10;99.90
17986;DHT22;9118;48.122;11.546;2024-02-26T05:40:31;4.10;99.90
17986;DHT22;9118;48.122;11.546;2024-02-26T05:42:57;4.20;99.90
17986;DHT22;9118;48.122;11.546;2024-02-26T05:45:24;4.10;99.90
17986;DHT22;9118;48.122;11.546;2024-02-26T05:47:55;4.20;99.90
17986;DHT22;9118;48.122;11.546;2024-02-26T05:50:22;4.20;99.90
17986;DHT22;9118;48.122;11.546;2024-02-26T05:52:49;4.20;99.90
17986;DHT22;9118;48.122;11.546;2024-02-26T05:55:16;4.20;99.90
17986;DHT22;9118;48.122;11.546;2024-02-26T05:57:44;4.10;99.90
17986;DHT22;9118;48.122;11.546;2024-02-26T06:00:11;4.20;99.90
17986;DHT22;9118;48.122;11.546;2024-02-26T06:02:38;4.30;99.90
17986;DHT22;9118;48.122;11.546;2024-02-26T06:05:08;4.40;99.90
17986;DHT22;9118;48.122;11.546;2024-02-26T06:07:35;4.40;99.90
17986;DHT22;9118;48.122;11.546;2024-02-26T06:10:02;4.40;99.90
17986;DHT22;9118;48.122;11.546;2024-02-26T06:12:30;4.30;99.90
17986;DHT22;9118;48.122;11.546;2024-02-26T06:14:58;4.40;99.90
17986;DHT22;9118;48.122;11.546;2024-02-26T06:17:26;4.50;99.90
17986;DHT22;9118;48.122;11.546;2024-02-26T06:19:54;4.60;99.90
17986;DHT22;9118;48.122;11.546;2024-02-26T06:22:26;4.50;99.90
17986;DHT22;9118;48.122;11.546;2024-02-26T06:24:53;4.60;99.90
17986;DHT22;9118;48.122;11.546;2024-02-26T06:27:20;4.80;99.90
17986;DHT22;9118;48.122;11.546;2024-02-26T06:29:47;4.80;99.90
17986;DHT22;9118;48.122;11.546;2024-02-26T06:32:15;4.70;99.90
17986;DHT22;9118;48.122;11.546;2024-02-26T06:34:41;4.80;99.90
17986;DHT22;9118;48.122;11.546;2024-02-26T06:37:08;4.90;99.90
17986;DHT22;9118;48.122;11.546;2024-02-26T06:39:37;5.00;99.90
17986;DHT22;9118;48.122;11.546;2024-02-26T06:42:04;5.00;99.90
17986;DHT22;9118;48.122;11.546;2024-02-26T06:44:31;5.00;99.90
17986;DHT22;9118;48.122;11.546;2024-02-26T06:46:58;5.00;99.90
17986;DHT22;9118;48.122;11.546;2024-02-26T06:49:25;6.00;99.90
17986;DHT22;9118;48.122;11.546;2024-02-26T06:51:52;5.10;99.90
17986;DHT22;9118;48.122;11.546;2024-02-26T06:54:19;5.00;99.90
17986;DHT22;9118;48.122;11.546;2024-02-26T06:56:49;5.20;99.90
17986;DHT22;9118;48.122;11.546;2024-02-26T06:59:16;5.20;99.90
17986;DHT22;9118;48.122;11.546;2024-02-26T07:01:45;5.30;99.90
17986;DHT22;9118;48.122;11.546;2024-02-26T07:04:12;5.30;99.90
17986;DHT22;9118;48.122;11.546;2024-02-26T07:06:39;5.30;99.90
17986;DHT22;9118;48.122;11.546;2024-02-26T07:09:06;5.40;99.90
17986;DHT22;9118;48.122;11.546;2024-02-26T07:11:33;5.50;99.90
17986;DHT22;9118;48.122;11.546;2024-02-26T07:14:02;5.60;99.90
17986;DHT22;9118;48.122;11.546;2024-02-26T07:16:29;5.60;99.90
17986;DHT22;9118;48.122;11.546;2024-02-26T07:18:56;5.60;99.90
17986;DHT22;9118;48.122;11.546;2024-02-26T07:21:23;5.70;99.90
17986;DHT22;9118;48.122;11.546;2024-02-26T07:23:50;5.70;99.90
17986;DHT22;9118;48.122;11.546;2024-02-26T07:26:19;5.80;99.90
17986;DHT22;9118;48.122;11.546;2024-02-26T07:28:46;5.90;99.90
17986;DHT22;9118;48.122;11.546;2024-02-26T07:31:15;5.90;99.90
17986;DHT22;9118;48.122;11.546;2024-02-26T07:33:42;6.00;99.90
17986;DHT22;9118;48.122;11.546;2024-02-26T07:36:08;6.20;99.90
17986;DHT22;9118;48.122;11.546;2024-02-26T07:38:35;6.20;99.90
17986;DHT22;9118;48.122;11.546;2024-02-26T07:41:02;6.00;99.90
17986;DHT22;9118;48.122;11.546;2024-02-26T07:43:29;6.10;99.90
17986;DHT22;9118;48.122;11.546;2024-02-26T07:45:57;6.20;99.90
17986;DHT22;9118;48.122;11.546;2024-02-26T07:48:25;6.50;99.90
17986;DHT22;9118;48.122;11.546;2024-02-26T07:50:52;6.40;99.90
17986;DHT22;9118;48.122;11.546;2024-02-26T07:53:19;6.40;99.90
17986;DHT22;9118;48.122;11.546;2024-02-26T07:55:46;6.40;99.90
17986;DHT22;9118;48.122;11.546;2024-02-26T07:58:15;6.60;99.90
17986;DHT22;9118;48.122;11.546;2024-02-26T08:00:43;6.60;99.90
17986;DHT22;9118;48.122;11.546;2024-02-26T08:03:11;6.60;99.90
17986;DHT22;9118;48.122;11.546;2024-02-26T08:05:42;6.70;99.90
17986;DHT22;9118;48.122;11.546;2024-02-26T08:08:09;6.80;99.90
17986;DHT22;9118;48.122;11.546;2024-02-26T08:10:36;7.00;99.90
17986;DHT22;9118;48.122;11.546;2024-02-26T08:13:07;7.00;99.90
17986;DHT22;9118;48.122;11.546;2024-02-26T08:15:35;7.00;99.90
17986;DHT22;9118;48.122;11.546;2024-02-26T08:18:02;7.10;99.90
17986;DHT22;9118;48.122;11.546;2024-02-26T08:21:14;7.30;99.90
17986;DHT22;9118;48.122;11.546;2024-02-26T08:26:39;7.60;99.90
17986;DHT22;9118;48.122;11.546;2024-02-26T08:29:09;7.60;99.90
17986;DHT22;9118;48.122;11.546;2024-02-26T08:31:36;7.80;99.90
17986;DHT22;9118;48.122;11.546;2024-02-26T08:34:04;7.70;99.90
17986;DHT22;9118;48.122;11.546;2024-02-26T08:36:31;7.80;99.90
17986;DHT22;9118;48.122;11.546;2024-02-26T08:38:58;7.90;99.90
17986;DHT22;9118;48.122;11.546;2024-02-26T08:41:25;8.00;99.90
17986;DHT22;9118;48.122;11.546;2024-02-26T08:43:54;8.00;99.90
17986;DHT22;9118;48.122;11.546;2024-02-26T08:46:21;8.10;99.90
17986;DHT22;9118;48.122;11.546;2024-02-26T08:48:48;8.20;99.90
17986;DHT22;9118;48.122;11.546;2024-02-26T08:51:17;8.50;99.90
17986;DHT22;9118;48.122;11.546;2024-02-26T08:53:44;8.50;99.90
17986;DHT22;9118;48.122;11.546;2024-02-26T08:56:13;8.60;99.90
17986;DHT22;9118;48.122;11.546;2024-02-26T08:58:56;8.60;99.90
17986;DHT22;9118;48.122;11.546;2024-02-26T09:01:26;8.80;99.90
17986;DHT22;9118;48.122;11.546;2024-02-26T09:03:55;8.80;99.90
17986;DHT22;9118;48.122;11.546;2024-02-26T09:06:22;8.80;99.90
17986;DHT22;9118;48.122;11.546;2024-02-26T09:08:49;8.80;99.90
17986;DHT22;9118;48.122;11.546;2024-02-26T09:11:16;9.00;99.90
17986;DHT22;9118;48.122;11.546;2024-02-26T09:13:45;8.90;99.90
17986;DHT22;9118;48.122;11.546;2024-02-26T09:18:53;9.10;99.90
17986;DHT22;9118;48.122;11.546;2024-02-26T09:21:25;9.20;99.90
17986;DHT22;9118;48.122;11.546;2024-02-26T09:23:53;9.20;99.90
17986;DHT22;9118;48.122;11.546;2024-02-26T09:26:23;9.40;99.90
17986;DHT22;9118;48.122;11.546;2024-02-26T09:28:50;9.30;99.90
17986;DHT22;9118;48.122;11.546;2024-02-26T09:38:44;9.60;99.90
17986;DHT22;9118;48.122;11.546;2024-02-26T09:41:13;9.80;99.90
17986;DHT22;9118;48.122;11.546;2024-02-26T09:43:44;9.80;99.90
17986;DHT22;9118;48.122;11.546;2024-02-26T09:46:14;9.90;99.90
17986;DHT22;9118;48.122;11.546;2024-02-26T09:51:26;10.40;99.90
17986;DHT22;9118;48.122;11.546;2024-02-26T09:53:54;10.40;99.90
17986;DHT22;9118;48.122;11.546;2024-02-26T09:56:21;10.60;99.90
17986;DHT22;9118;48.122;11.546;2024-02-26T09:58:54;10.50;99.90
17986;DHT22;9118;48.122;11.546;2024-02-26T10:01:35;10.30;99.90
17986;DHT22;9118;48.122;11.546;2024-02-26T10:04:03;10.60;99.90
17986;DHT22;9118;48.122;11.546;2024-02-26T10:06:37;10.70;99.90
17986;DHT22;9118;48.122;11.546;2024-02-26T10:09:06;10.50;99.90
17986;DHT22;9118;48.122;11.546;2024-02-26T10:11:36;10.70;99.90
17986;DHT22;9118;48.122;11.546;2024-02-26T10:14:04;10.80;99.90
17986;DHT22;9118;48.122;11.546;2024-02-26T10:16:30;10.70;99.90
17986;DHT22;9118;48.122;11.546;2024-02-26T10:18:58;10.60;99.90
17986;DHT22;9118;48.122;11.546;2024-02-26T10:21:25;10.70;99.90
17986;DHT22;9118;48.122;11.546;2024-02-26T10:23:52;10.70;99.90
17986;DHT22;9118;48.122;11.546;2024-02-26T10:26:21;10.90;99.90
17986;DHT22;9118;48.122;11.546;2024-02-26T10:28:47;11.00;99.90
17986;DHT22;9118;48.122;11.546;2024-02-26T10:31:25;11.00;99.90
17986;DHT22;9118;48.122;11.546;2024-02-26T10:33:59;11.20;99.90
17986;DHT22;9118;48.122;11.546;2024-02-26T10:36:28;11.20;99.90
17986;DHT22;9118;48.122;11.546;2024-02-26T10:38:54;11.30;99.90
17986;DHT22;9118;48.122;11.546;2024-02-26T10:44:20;11.20;99.90
17986;DHT22;9118;48.122;11.546;2024-02-26T10:46:47;11.10;99.90
17986;DHT22;9118;48.122;11.546;2024-02-26T10:49:15;11.60;99.90
17986;DHT22;9118;48.122;11.546;2024-02-26T10:51:44;11.40;99.90
17986;DHT22;9118;48.122;11.546;2024-02-26T10:54:12;11.70;99.90
17986;DHT22;9118;48.122;11.546;2024-02-26T10:56:39;11.60;99.90
17986;DHT22;9118;48.122;11.546;2024-02-26T10:59:09;11.60;99.90
17986;DHT22;9118;48.122;11.546;2024-02-26T11:01:38;11.70;99.90
17986;DHT22;9118;48.122;11.546;2024-02-26T11:04:19;11.90;99.90
17986;DHT22;9118;48.122;11.546;2024-02-26T11:06:46;12.00;99.90
17986;DHT22;9118;48.122;11.546;2024-02-26T11:09:14;12.00;99.90
17986;DHT22;9118;48.122;11.546;2024-02-26T11:11:41;12.10;99.90
17986;DHT22;9118;48.122;11.546;2024-02-26T11:14:08;11.90;99.90
17986;DHT22;9118;48.122;11.546;2024-02-26T11:16:37;11.90;99.90
17986;DHT22;9118;48.122;11.546;2024-02-26T11:19:19;12.10;99.90
17986;DHT22;9118;48.122;11.546;2024-02-26T11:21:46;12.20;99.90
17986;DHT22;9118;48.122;11.546;2024-02-26T11:24:13;12.00;99.90
17986;DHT22;9118;48.122;11.546;2024-02-26T12:04:05;13.50;99.90
17986;DHT22;9118;48.122;11.546;2024-02-26T12:06:39;13.30;99.90
17986;DHT22;9118;48.122;11.546;2024-02-26T12:09:07;13.30;99.90
17986;DHT22;9118;48.122;11.546;2024-02-26T12:11:37;13.30;99.90
17986;DHT22;9118;48.122;11.546;2024-02-26T12:14:03;13.40;99.90
17986;DHT22;9118;48.122;11.546;2024-02-26T12:16:35;13.40;99.90
17986;DHT22;9118;48.122;11.546;2024-02-26T12:19:05;13.40;99.90
17986;DHT22;9118;48.122;11.546;2024-02-26T12:24:06;13.30;99.90
17986;DHT22;9118;48.122;11.546;2024-02-26T14:16:59;14.10;99.90
17986;DHT22;9118;48.122;11.546;2024-02-26T14:19:26;13.90;99.90
17986;DHT22;9118;48.122;11.546;2024-02-26T14:21:54;13.80;99.90
17986;DHT22;9118;48.122;11.546;2024-02-26T14:24:21;13.70;99.90
17986;DHT22;9118;48.122;11.546;2024-02-26T14:26:47;13.70;99.90
17986;DHT22;9118;48.122;11.546;2024-02-26T14:29:14;13.60;99.90
17986;DHT22;9118;48.122;11.546;2024-02-26T14:31:42;13.40;99.90
17986;DHT22;9118;48.122;11.546;2024-02-26T14:34:10;13.40;99.90
17986;DHT22;9118;48.122;11.546;2024-02-26T14:36:36;13.30;99.90
17986;DHT22;9118;48.122;11.546;2024-02-26T14:39:06;13.20;99.90
17986;DHT22;9118;48.122;11.546;2024-02-26T14:41:36;13.20;99.90
17986;DHT22;9118;48.122;11.546;2024-02-26T14:44:03;13.10;99.90
17986;DHT22;9118;48.122;11.546;2024-02-26T14:46:30;13.20;99.90
17986;DHT22;9118;48.122;11.546;2024-02-26T14:48:57;13.10;99.90
17986;DHT22;9118;48.122;11.546;2024-02-26T14:51:26;13.00;99.90
17986;DHT22;9118;48.122;11.546;2024-02-26T14:53:52;12.90;99.90
17986;DHT22;9118;48.122;11.546;2024-02-26T14:56:36;12.80;99.90
17986;DHT22;9118;48.122;11.546;2024-02-26T14:59:03;12.80;99.90
17986;DHT22;9118;48.122;11.546;2024-02-26T15:01:30;12.70;99.90
17986;DHT22;9118;48.122;11.546;2024-02-26T15:03:57;12.60;99.90
17986;DHT22;9118;48.122;11.546;2024-02-26T15:06:26;12.50;99.90
17986;DHT22;9118;48.122;11.546;2024-02-26T15:08:59;12.40;99.90
17986;DHT22;9118;48.122;11.546;2024-02-26T15:11:26;12.30;99.90
17986;DHT22;9118;48.122;11.546;2024-02-26T15:13:53;12.30;99.90
17986;DHT22;9118;48.122;11.546;2024-02-26T15:16:34;12.20;99.90
17986;DHT22;9118;48.122;11.546;2024-02-26T15:19:01;12.10;99.90
17986;DHT22;9118;48.122;11.546;2024-02-26T15:21:29;12.00;99.90
17986;DHT22;9118;48.122;11.546;2024-02-26T15:23:56;12.00;99.90
17986;DHT22;9118;48.122;11.546;2024-02-26T15:26:23;11.90;99.90
17986;DHT22;9118;48.122;11.546;2024-02-26T15:31:19;11.90;99.90
17986;DHT22;9118;48.122;11.546;2024-02-26T15:33:46;11.80;99.90
17986;DHT22;9118;48.122;11.546;2024-02-26T15:36:13;11.80;99.90
17986;DHT22;9118;48.122;11.546;2024-02-26T15:38:42;11.70;99.90
17986;DHT22;9118;48.122;11.546;2024-02-26T15:41:10;11.70;99.90
17986;DHT22;9118;48.122;11.546;2024-02-26T15:43:37;11.60;99.90
17986;DHT22;9118;48.122;11.546;2024-02-26T15:46:04;11.70;99.90
17986;DHT22;9118;48.122;11.546;2024-02-26T15:48:31;11.50;99.90
17986;DHT22;9118;48.122;11.546;2024-02-26T15:50:58;11.60;99.90
17986;DHT22;9118;48.122;11.546;2024-02-26T15:53:25;11.60;99.90
17986;DHT22;9118;48.122;11.546;2024-02-26T15:55:53;11.50;99.90
17986;DHT22;9118;48.122;11.546;2024-02-26T15:58:20;11.50;99.90
17986;DHT22;9118;48.122;11.546;2024-02-26T16:00:47;11.40;99.90
17986;DHT22;9118;48.122;11.546;2024-02-26T16:03:14;11.30;99.90
17986;DHT22;9118;48.122;11.546;2024-02-26T16:05:41;11.40;99.90
17986;DHT22;9118;48.122;11.546;2024-02-26T16:08:17;11.20;99.90
17986;DHT22;9118;48.122;11.546;2024-02-26T16:10:46;11.20;99.90
17986;DHT22;9118;48.122;11.546;2024-02-26T16:13:14;11.30;99.90
17986;DHT22;9118;48.122;11.546;2024-02-26T16:15:42;11.20;99.90
17986;DHT22;9118;48.122;11.546;2024-02-26T16:18:09;11.20;99.90
17986;DHT22;9118;48.122;11.546;2024-02-26T16:20:36;11.20;99.90
17986;DHT22;9118;48.122;11.546;2024-02-26T16:23:03;11.10;99.90
17986;DHT22;9118;48.122;11.546;2024-02-26T16:25:33;11.20;99.90
17986;DHT22;9118;48.122;11.546;2024-02-26T16:28:00;11.10;99.90
17986;DHT22;9118;48.122;11.546;2024-02-26T16:30:28;11.10;99.90
17986;DHT22;9118;48.122;11.546;2024-02-26T16:32:57;11.00;99.90
17986;DHT22;9118;48.122;11.546;2024-02-26T16:35:24;11.00;99.90
17986;DHT22;9118;48.122;11.546;2024-02-26T16:37:51;11.00;99.90
17986;DHT22;9118;48.122;11.546;2024-02-26T16:40:18;11.00;99.90
17986;DHT22;9118;48.122;11.546;2024-02-26T16:42:45;11.00;99.90
17986;DHT22;9118;48.122;11.546;2024-02-26T16:45:12;10.80;99.90
17986;DHT22;9118;48.122;11.546;2024-02-26T16:47:40;10.90;99.90
17986;DHT22;9118;48.122;11.546;2024-02-26T16:50:09;10.90;99.90
17986;DHT22;9118;48.122;11.546;2024-02-26T16:52:36;10.80;99.90
17986;DHT22;9118;48.122;11.546;2024-02-26T16:55:03;10.80;99.90
17986;DHT22;9118;48.122;11.546;2024-02-26T16:57:31;10.80;99.90
17986;DHT22;9118;48.122;11.546;2024-02-26T16:59:58;10.80;99.90
17986;DHT22;9118;48.122;11.546;2024-02-26T17:02:25;10.90;99.90
17986;DHT22;9118;48.122;11.546;2024-02-26T17:04:53;10.80;99.90
17986;DHT22;9118;48.122;11.546;2024-02-26T17:07:20;10.70;99.90
17986;DHT22;9118;48.122;11.546;2024-02-26T17:09:47;10.70;99.90
17986;DHT22;9118;48.122;11.546;2024-02-26T17:12:13;10.80;99.90
17986;DHT22;9118;48.122;11.546;2024-02-26T17:14:42;10.70;99.90
17986;DHT22;9118;48.122;11.546;2024-02-26T17:17:13;10.80;99.90
17986;DHT22;9118;48.122;11.546;2024-02-26T17:19:40;10.60;99.90
17986;DHT22;9118;48.122;11.546;2024-02-26T17:22:08;10.40;99.90
17986;DHT22;9118;48.122;11.546;2024-02-26T17:24:36;10.40;99.90
17986;DHT22;9118;48.122;11.546;2024-02-26T17:27:04;10.50;99.90
17986;DHT22;9118;48.122;11.546;2024-02-26T17:29:31;10.60;99.90
17986;DHT22;9118;48.122;11.546;2024-02-26T17:31:59;10.60;99.90
17986;DHT22;9118;48.122;11.546;2024-02-26T17:34:27;10.60;99.90
17986;DHT22;9118;48.122;11.546;2024-02-26T17:36:55;10.50;99.90
17986;DHT22;9118;48.122;11.546;2024-02-26T17:39:43;10.60;99.90
17986;DHT22;9118;48.122;11.546;2024-02-26T17:42:10;10.60;99.90
17986;DHT22;9118;48.122;11.546;2024-02-26T17:44:37;10.60;99.90
17986;DHT22;9118;48.122;11.546;2024-02-26T17:47:04;10.60;99.90
17986;DHT22;9118;48.122;11.546;2024-02-26T17:49:31;10.50;99.90
17986;DHT22;9118;48.122;11.546;2024-02-26T17:51:58;10.50;99.90
17986;DHT22;9118;48.122;11.546;2024-02-26T17:54:25;10.50;99.90
17986;DHT22;9118;48.122;11.546;2024-02-26T17:56:53;10.50;99.90
17986;DHT22;9118;48.122;11.546;2024-02-26T17:59:20;10.50;99.90
17986;DHT22;9118;48.122;11.546;2024-02-26T18:01:47;10.40;99.90
17986;DHT22;9118;48.122;11.546;2024-02-26T18:04:14;10.50;99.90
17986;DHT22;9118;48.122;11.546;2024-02-26T18:06:45;10.40;99.90
17986;DHT22;9118;48.122;11.546;2024-02-26T18:11:39;10.40;99.90
17986;DHT22;9118;48.122;11.546;2024-02-26T18:14:07;10.40;99.90
17986;DHT22;9118;48.122;11.546;2024-02-26T18:16:34;10.30;99.90
17986;DHT22;9118;48.122;11.546;2024-02-26T18:19:01;10.40;99.90
17986;DHT22;9118;48.122;11.546;2024-02-26T18:21:31;10.30;99.90
17986;DHT22;9118;48.122;11.546;2024-02-26T18:23:58;10.20;99.90
17986;DHT22;9118;48.122;11.546;2024-02-26T18:26:25;10.20;99.90
17986;DHT22;9118;48.122;11.546;2024-02-26T18:28:54;10.20;99.90
17986;DHT22;9118;48.122;11.546;2024-02-26T18:31:23;10.20;99.90
17986;DHT22;9118;48.122;11.546;2024-02-26T18:33:50;10.10;99.90
17986;DHT22;9118;48.122;11.546;2024-02-26T18:36:17;10.10;99.90
17986;DHT22;9118;48.122;11.546;2024-02-26T18:38:48;10.10;99.90
17986;DHT22;9118;48.122;11.546;2024-02-26T18:41:18;10.10;99.90